sensor_id;sensor_type;location;lat;lon;timestamp;P1;durP1;ratioP1;P2;durP2;ratioP2
38479;SDS011;62333;51.980;5.934;2023-06-26T00:00:27;3.92;;;2.20;;
38479;SDS011;62333;51.980;5.934;2023-06-26T00:02:52;5.35;;;2.05;;
38479;SDS011;62333;51.980;5.934;2023-06-26T00:05:19;3.85;;;2.38;;
38479;SDS011;62333;51.980;5.934;2023-06-26T00:07:45;3.65;;;1.98;;
38479;SDS011;62333;51.980;5.934;2023-06-26T00:10:10;2.95;;;1.80;;
38479;SDS011;62333;51.980;5.934;2023-06-26T00:12:36;4.10;;;2.13;;
38479;SDS011;62333;51.980;5.934;2023-06-26T00:15:02;2.83;;;1.80;;
38479;SDS011;62333;51.980;5.934;2023-06-26T00:17:28;4.00;;;2.30;;
38479;SDS011;62333;51.980;5.934;2023-06-26T00:19:53;3.95;;;2.15;;
38479;SDS011;62333;51.980;5.934;2023-06-26T00:22:20;3.97;;;2.00;;
38479;SDS011;62333;51.980;5.934;2023-06-26T00:24:46;4.80;;;3.08;;
38479;SDS011;62333;51.980;5.934;2023-06-26T00:27:12;2.55;;;1.75;;
38479;SDS011;62333;51.980;5.934;2023-06-26T00:29:37;4.53;;;2.63;;
38479;SDS011;62333;51.980;5.934;2023-06-26T00:32:03;3.38;;;2.15;;
38479;SDS011;62333;51.980;5.934;2023-06-26T00:34:29;8.18;;;2.63;;
38479;SDS011;62333;51.980;5.934;2023-06-26T00:36:55;3.60;;;2.75;;
38479;SDS011;62333;51.980;5.934;2023-06-26T00:39:21;3.80;;;2.38;;
38479;SDS011;62333;51.980;5.934;2023-06-26T00:41:46;4.93;;;2.38;;
38479;SDS011;62333;51.980;5.934;2023-06-26T00:44:12;3.25;;;2.13;;
38479;SDS011;62333;51.980;5.934;2023-06-26T00:46:38;5.25;;;3.20;;
38479;SDS011;62333;51.980;5.934;2023-06-26T00:49:04;3.80;;;2.33;;
38479;SDS011;62333;51.980;5.934;2023-06-26T00:51:30;3.10;;;2.55;;
38479;SDS011;62333;51.980;5.934;2023-06-26T00:53:56;5.30;;;2.95;;
38479;SDS011;62333;51.980;5.934;2023-06-26T00:56:22;4.65;;;2.70;;
38479;SDS011;62333;51.980;5.934;2023-06-26T00:58:49;4.10;;;2.65;;
38479;SDS011;62333;51.980;5.934;2023-06-26T01:01:14;3.97;;;3.00;;
38479;SDS011;62333;51.980;5.934;2023-06-26T01:03:45;3.47;;;2.42;;
38479;SDS011;62333;51.980;5.934;2023-06-26T01:06:17;3.65;;;2.58;;
38479;SDS011;62333;51.980;5.934;2023-06-26T01:08:44;5.18;;;3.10;;
38479;SDS011;62333;51.980;5.934;2023-06-26T01:11:11;4.07;;;2.85;;
38479;SDS011;62333;51.980;5.934;2023-06-26T01:13:38;4.85;;;2.80;;
38479;SDS011;62333;51.980;5.934;2023-06-26T01:16:04;3.85;;;2.10;;
38479;SDS011;62333;51.980;5.934;2023-06-26T01:18:31;5.05;;;3.13;;
38479;SDS011;62333;51.980;5.934;2023-06-26T01:20:58;5.70;;;3.13;;
38479;SDS011;62333;51.980;5.934;2023-06-26T01:26:29;4.13;;;2.90;;
38479;SDS011;62333;51.980;5.934;2023-06-26T01:29:00;6.28;;;3.75;;
38479;SDS011;62333;51.980;5.934;2023-06-26T01:31:29;3.83;;;2.85;;
38479;SDS011;62333;51.980;5.934;2023-06-26T01:33:56;3.72;;;2.70;;
38479;SDS011;62333;51.980;5.934;2023-06-26T01:36:26;3.75;;;2.60;;
38479;SDS011;62333;51.980;5.934;2023-06-26T01:38:52;4.40;;;2.70;;
38479;SDS011;62333;51.980;5.934;2023-06-26T01:41:18;4.97;;;2.50;;
38479;SDS011;62333;51.980;5.934;2023-06-26T01:46:25;5.35;;;3.97;;
38479;SDS011;62333;51.980;5.934;2023-06-26T01:51:55;4.05;;;3.00;;
38479;SDS011;62333;51.980;5.934;2023-06-26T01:54:30;5.97;;;3.25;;
38479;SDS011;62333;51.980;5.934;2023-06-26T01:57:02;6.10;;;3.58;;
38479;SDS011;62333;51.980;5.934;2023-06-26T01:59:31;4.75;;;4.13;;
38479;SDS011;62333;51.980;5.934;2023-06-26T02:02:00;4.45;;;3.38;;
38479;SDS011;62333;51.980;5.934;2023-06-26T02:04:26;5.22;;;3.78;;
38479;SDS011;62333;51.980;5.934;2023-06-26T02:06:51;4.78;;;4.00;;
38479;SDS011;62333;51.980;5.934;2023-06-26T02:09:17;5.80;;;3.67;;
38479;SDS011;62333;51.980;5.934;2023-06-26T02:11:43;6.28;;;4.13;;
38479;SDS011;62333;51.980;5.934;2023-06-26T02:14:08;7.25;;;3.75;;
38479;SDS011;62333;51.980;5.934;2023-06-26T02:16:36;6.53;;;3.78;;
38479;SDS011;62333;51.980;5.934;2023-06-26T02:19:01;6.75;;;4.35;;
38479;SDS011;62333;51.980;5.934;2023-06-26T02:21:27;5.78;;;3.97;;
38479;SDS011;62333;51.980;5.934;2023-06-26T02:23:52;4.43;;;3.42;;
38479;SDS011;62333;51.980;5.934;2023-06-26T02:26:18;3.83;;;2.35;;
38479;SDS011;62333;51.980;5.934;2023-06-26T02:28:44;4.80;;;2.63;;
38479;SDS011;62333;51.980;5.934;2023-06-26T02:31:09;3.70;;;2.17;;
38479;SDS011;62333;51.980;5.934;2023-06-26T02:33:35;4.05;;;2.10;;
38479;SDS011;62333;51.980;5.934;2023-06-26T02:36:03;4.85;;;2.08;;
38479;SDS011;62333;51.980;5.934;2023-06-26T02:38:29;5.63;;;2.70;;
38479;SDS011;62333;51.980;5.934;2023-06-26T02:40:55;4.10;;;2.03;;
38479;SDS011;62333;51.980;5.934;2023-06-26T02:43:20;3.50;;;1.60;;
38479;SDS011;62333;51.980;5.934;2023-06-26T02:45:46;5.15;;;2.53;;
38479;SDS011;62333;51.980;5.934;2023-06-26T02:48:12;6.82;;;2.70;;
38479;SDS011;62333;51.980;5.934;2023-06-26T02:50:37;3.30;;;1.50;;
38479;SDS011;62333;51.980;5.934;2023-06-26T02:53:03;3.00;;;1.48;;
38479;SDS011;62333;51.980;5.934;2023-06-26T02:55:29;3.92;;;1.70;;
38479;SDS011;62333;51.980;5.934;2023-06-26T02:57:54;3.13;;;1.25;;
38479;SDS011;62333;51.980;5.934;2023-06-26T03:00:20;3.72;;;1.42;;
38479;SDS011;62333;51.980;5.934;2023-06-26T03:02:45;3.05;;;1.10;;
38479;SDS011;62333;51.980;5.934;2023-06-26T03:05:11;4.13;;;1.65;;
38479;SDS011;62333;51.980;5.934;2023-06-26T03:07:38;5.85;;;2.58;;
38479;SDS011;62333;51.980;5.934;2023-06-26T03:10:04;6.43;;;2.55;;
38479;SDS011;62333;51.980;5.934;2023-06-26T03:12:30;4.35;;;1.17;;
38479;SDS011;62333;51.980;5.934;2023-06-26T03:14:56;5.10;;;1.10;;
38479;SDS011;62333;51.980;5.934;2023-06-26T03:17:21;4.75;;;1.42;;
38479;SDS011;62333;51.980;5.934;2023-06-26T03:19:47;4.10;;;1.70;;
38479;SDS011;62333;51.980;5.934;2023-06-26T03:22:13;2.92;;;1.15;;
38479;SDS011;62333;51.980;5.934;2023-06-26T03:24:38;4.95;;;1.52;;
38479;SDS011;62333;51.980;5.934;2023-06-26T03:27:04;5.95;;;2.10;;
38479;SDS011;62333;51.980;5.934;2023-06-26T03:29:30;7.38;;;1.98;;
38479;SDS011;62333;51.980;5.934;2023-06-26T03:31:56;6.15;;;1.73;;
38479;SDS011;62333;51.980;5.934;2023-06-26T03:34:21;5.65;;;1.58;;
38479;SDS011;62333;51.980;5.934;2023-06-26T03:36:47;6.60;;;2.25;;
38479;SDS011;62333;51.980;5.934;2023-06-26T03:39:13;7.00;;;1.88;;
38479;SDS011;62333;51.980;5.934;2023-06-26T03:41:38;8.77;;;2.10;;
38479;SDS011;62333;51.980;5.934;2023-06-26T03:44:04;7.22;;;1.90;;
38479;SDS011;62333;51.980;5.934;2023-06-26T03:46:30;4.75;;;1.80;;
38479;SDS011;62333;51.980;5.934;2023-06-26T03:48:55;3.47;;;1.40;;
38479;SDS011;62333;51.980;5.934;2023-06-26T03:51:21;11.48;;;4.18;;
38479;SDS011;62333;51.980;5.934;2023-06-26T03:53:47;4.45;;;1.95;;
38479;SDS011;62333;51.980;5.934;2023-06-26T03:56:12;5.30;;;1.90;;
38479;SDS011;62333;51.980;5.934;2023-06-26T03:58:39;7.68;;;3.22;;
38479;SDS011;62333;51.980;5.934;2023-06-26T04:01:04;5.32;;;2.42;;
38479;SDS011;62333;51.980;5.934;2023-06-26T04:03:30;6.45;;;1.98;;
38479;SDS011;62333;51.980;5.934;2023-06-26T04:05:56;6.57;;;2.28;;
38479;SDS011;62333;51.980;5.934;2023-06-26T04:08:23;5.15;;;2.05;;
38479;SDS011;62333;51.980;5.934;2023-06-26T04:10:51;7.35;;;1.70;;
38479;SDS011;62333;51.980;5.934;2023-06-26T04:13:17;5.45;;;1.85;;
38479;SDS011;62333;51.980;5.934;2023-06-26T04:15:43;6.88;;;2.25;;
38479;SDS011;62333;51.980;5.934;2023-06-26T04:18:08;6.78;;;1.45;;
38479;SDS011;62333;51.980;5.934;2023-06-26T04:20:38;7.45;;;2.67;;
38479;SDS011;62333;51.980;5.934;2023-06-26T04:23:05;5.97;;;2.40;;
38479;SDS011;62333;51.980;5.934;2023-06-26T04:25:31;8.07;;;2.75;;
38479;SDS011;62333;51.980;5.934;2023-06-26T04:27:57;9.38;;;2.88;;
38479;SDS011;62333;51.980;5.934;2023-06-26T04:30:22;10.23;;;2.58;;
38479;SDS011;62333;51.980;5.934;2023-06-26T04:32:48;9.95;;;3.28;;
38479;SDS011;62333;51.980;5.934;2023-06-26T04:35:14;8.10;;;1.77;;
38479;SDS011;62333;51.980;5.934;2023-06-26T04:37:39;10.00;;;2.83;;
38479;SDS011;62333;51.980;5.934;2023-06-26T04:40:05;7.95;;;2.83;;
38479;SDS011;62333;51.980;5.934;2023-06-26T04:42:32;6.68;;;2.65;;
38479;SDS011;62333;51.980;5.934;2023-06-26T04:44:57;8.20;;;2.75;;
38479;SDS011;62333;51.980;5.934;2023-06-26T04:47:23;8.05;;;2.63;;
38479;SDS011;62333;51.980;5.934;2023-06-26T04:49:49;7.32;;;2.15;;
38479;SDS011;62333;51.980;5.934;2023-06-26T04:52:14;10.38;;;3.40;;
38479;SDS011;62333;51.980;5.934;2023-06-26T04:54:40;6.30;;;2.08;;
38479;SDS011;62333;51.980;5.934;2023-06-26T04:57:06;11.38;;;3.90;;
38479;SDS011;62333;51.980;5.934;2023-06-26T04:59:33;8.75;;;3.60;;
38479;SDS011;62333;51.980;5.934;2023-06-26T05:01:59;9.35;;;4.22;;
38479;SDS011;62333;51.980;5.934;2023-06-26T05:04:25;9.15;;;3.13;;
38479;SDS011;62333;51.980;5.934;2023-06-26T05:06:50;10.93;;;3.35;;
38479;SDS011;62333;51.980;5.934;2023-06-26T05:09:16;8.93;;;3.47;;
38479;SDS011;62333;51.980;5.934;2023-06-26T05:11:42;10.07;;;2.60;;
38479;SDS011;62333;51.980;5.934;2023-06-26T05:14:07;9.63;;;3.22;;
38479;SDS011;62333;51.980;5.934;2023-06-26T05:16:34;11.13;;;2.65;;
38479;SDS011;62333;51.980;5.934;2023-06-26T05:19:00;8.90;;;2.95;;
38479;SDS011;62333;51.980;5.934;2023-06-26T05:21:26;12.68;;;2.78;;
38479;SDS011;62333;51.980;5.934;2023-06-26T05:23:52;8.82;;;3.10;;
38479;SDS011;62333;51.980;5.934;2023-06-26T05:26:21;8.82;;;2.40;;
38479;SDS011;62333;51.980;5.934;2023-06-26T05:28:47;7.05;;;2.40;;
38479;SDS011;62333;51.980;5.934;2023-06-26T05:31:14;7.13;;;2.38;;
38479;SDS011;62333;51.980;5.934;2023-06-26T05:33:42;8.00;;;2.45;;
38479;SDS011;62333;51.980;5.934;2023-06-26T05:36:09;10.65;;;2.85;;
38479;SDS011;62333;51.980;5.934;2023-06-26T05:38:37;7.90;;;3.20;;
38479;SDS011;62333;51.980;5.934;2023-06-26T05:41:03;6.80;;;2.10;;
38479;SDS011;62333;51.980;5.934;2023-06-26T05:43:29;9.02;;;3.08;;
38479;SDS011;62333;51.980;5.934;2023-06-26T05:45:55;9.50;;;2.42;;
38479;SDS011;62333;51.980;5.934;2023-06-26T05:48:22;6.47;;;1.40;;
38479;SDS011;62333;51.980;5.934;2023-06-26T05:50:48;8.95;;;2.97;;
38479;SDS011;62333;51.980;5.934;2023-06-26T05:53:14;6.20;;;2.45;;
38479;SDS011;62333;51.980;5.934;2023-06-26T05:55:40;5.85;;;1.88;;
38479;SDS011;62333;51.980;5.934;2023-06-26T05:58:07;7.22;;;2.25;;
38479;SDS011;62333;51.980;5.934;2023-06-26T06:00:35;4.90;;;2.15;;
38479;SDS011;62333;51.980;5.934;2023-06-26T06:03:01;7.35;;;2.20;;
38479;SDS011;62333;51.980;5.934;2023-06-26T06:05:27;6.78;;;2.42;;
38479;SDS011;62333;51.980;5.934;2023-06-26T06:07:53;3.03;;;1.25;;
38479;SDS011;62333;51.980;5.934;2023-06-26T06:10:19;4.20;;;1.95;;
38479;SDS011;62333;51.980;5.934;2023-06-26T06:12:44;4.60;;;1.60;;
38479;SDS011;62333;51.980;5.934;2023-06-26T06:15:10;5.28;;;1.90;;
38479;SDS011;62333;51.980;5.934;2023-06-26T06:17:36;5.68;;;1.52;;
38479;SDS011;62333;51.980;5.934;2023-06-26T06:20:01;5.95;;;1.98;;
38479;SDS011;62333;51.980;5.934;2023-06-26T06:22:28;4.00;;;1.42;;
38479;SDS011;62333;51.980;5.934;2023-06-26T06:24:54;6.22;;;1.95;;
38479;SDS011;62333;51.980;5.934;2023-06-26T06:27:19;3.08;;;0.88;;
38479;SDS011;62333;51.980;5.934;2023-06-26T06:29:45;6.28;;;2.03;;
38479;SDS011;62333;51.980;5.934;2023-06-26T06:32:11;3.63;;;1.00;;
38479;SDS011;62333;51.980;5.934;2023-06-26T06:34:36;5.68;;;2.03;;
38479;SDS011;62333;51.980;5.934;2023-06-26T06:37:02;4.63;;;1.23;;
38479;SDS011;62333;51.980;5.934;2023-06-26T06:39:34;4.82;;;1.45;;
38479;SDS011;62333;51.980;5.934;2023-06-26T06:41:59;6.25;;;0.80;;
38479;SDS011;62333;51.980;5.934;2023-06-26T06:44:25;3.88;;;0.98;;
38479;SDS011;62333;51.980;5.934;2023-06-26T06:46:51;3.85;;;1.05;;
38479;SDS011;62333;51.980;5.934;2023-06-26T06:49:16;2.45;;;0.77;;
38479;SDS011;62333;51.980;5.934;2023-06-26T06:51:42;2.33;;;0.70;;
38479;SDS011;62333;51.980;5.934;2023-06-26T06:54:08;3.40;;;1.35;;
38479;SDS011;62333;51.980;5.934;2023-06-26T06:56:33;3.65;;;1.00;;
38479;SDS011;62333;51.980;5.934;2023-06-26T06:58:59;2.55;;;1.35;;
38479;SDS011;62333;51.980;5.934;2023-06-26T07:01:25;5.00;;;2.28;;
38479;SDS011;62333;51.980;5.934;2023-06-26T07:03:50;7.10;;;3.30;;
38479;SDS011;62333;51.980;5.934;2023-06-26T07:06:18;2.75;;;1.08;;
38479;SDS011;62333;51.980;5.934;2023-06-26T07:08:44;2.58;;;0.90;;
38479;SDS011;62333;51.980;5.934;2023-06-26T07:11:10;3.33;;;1.08;;
38479;SDS011;62333;51.980;5.934;2023-06-26T07:13:35;2.03;;;0.80;;
38479;SDS011;62333;51.980;5.934;2023-06-26T07:16:02;2.60;;;1.05;;
38479;SDS011;62333;51.980;5.934;2023-06-26T07:18:28;3.15;;;0.73;;
38479;SDS011;62333;51.980;5.934;2023-06-26T07:20:53;2.10;;;0.88;;
38479;SDS011;62333;51.980;5.934;2023-06-26T07:23:19;3.00;;;0.85;;
38479;SDS011;62333;51.980;5.934;2023-06-26T07:25:45;2.75;;;1.08;;
38479;SDS011;62333;51.980;5.934;2023-06-26T07:28:11;3.05;;;1.10;;
38479;SDS011;62333;51.980;5.934;2023-06-26T07:30:37;3.08;;;0.73;;
38479;SDS011;62333;51.980;5.934;2023-06-26T07:33:02;4.35;;;0.80;;
38479;SDS011;62333;51.980;5.934;2023-06-26T07:35:28;2.67;;;0.70;;
38479;SDS011;62333;51.980;5.934;2023-06-26T07:37:54;2.10;;;0.90;;
38479;SDS011;62333;51.980;5.934;2023-06-26T07:40:19;2.88;;;0.93;;
38479;SDS011;62333;51.980;5.934;2023-06-26T07:42:45;4.07;;;0.98;;
38479;SDS011;62333;51.980;5.934;2023-06-26T07:45:11;3.65;;;1.10;;
38479;SDS011;62333;51.980;5.934;2023-06-26T07:47:37;3.70;;;0.90;;
38479;SDS011;62333;51.980;5.934;2023-06-26T07:50:03;2.60;;;0.80;;
38479;SDS011;62333;51.980;5.934;2023-06-26T07:52:29;2.63;;;0.93;;
38479;SDS011;62333;51.980;5.934;2023-06-26T07:54:55;3.85;;;1.00;;
38479;SDS011;62333;51.980;5.934;2023-06-26T07:57:21;4.15;;;1.77;;
38479;SDS011;62333;51.980;5.934;2023-06-26T07:59:47;4.00;;;0.95;;
38479;SDS011;62333;51.980;5.934;2023-06-26T08:02:13;3.45;;;1.20;;
38479;SDS011;62333;51.980;5.934;2023-06-26T08:04:38;3.17;;;0.73;;
38479;SDS011;62333;51.980;5.934;2023-06-26T08:07:04;2.53;;;0.70;;
38479;SDS011;62333;51.980;5.934;2023-06-26T08:09:30;2.05;;;0.68;;
38479;SDS011;62333;51.980;5.934;2023-06-26T08:11:56;3.05;;;0.65;;
38479;SDS011;62333;51.980;5.934;2023-06-26T08:14:22;2.22;;;1.00;;
38479;SDS011;62333;51.980;5.934;2023-06-26T08:16:48;3.40;;;0.95;;
38479;SDS011;62333;51.980;5.934;2023-06-26T08:19:15;3.70;;;1.00;;
38479;SDS011;62333;51.980;5.934;2023-06-26T08:21:41;2.90;;;0.80;;
38479;SDS011;62333;51.980;5.934;2023-06-26T08:24:08;2.40;;;0.93;;
38479;SDS011;62333;51.980;5.934;2023-06-26T08:26:34;2.95;;;0.65;;
38479;SDS011;62333;51.980;5.934;2023-06-26T08:29:00;3.40;;;0.80;;
38479;SDS011;62333;51.980;5.934;2023-06-26T08:31:32;2.67;;;0.80;;
38479;SDS011;62333;51.980;5.934;2023-06-26T08:34:02;2.80;;;0.88;;
38479;SDS011;62333;51.980;5.934;2023-06-26T08:36:29;3.65;;;0.60;;
38479;SDS011;62333;51.980;5.934;2023-06-26T08:38:54;3.10;;;0.90;;
38479;SDS011;62333;51.980;5.934;2023-06-26T08:41:20;2.60;;;0.75;;
38479;SDS011;62333;51.980;5.934;2023-06-26T08:43:46;2.78;;;0.80;;
38479;SDS011;62333;51.980;5.934;2023-06-26T08:46:12;3.00;;;0.80;;
38479;SDS011;62333;51.980;5.934;2023-06-26T08:48:39;4.05;;;0.70;;
38479;SDS011;62333;51.980;5.934;2023-06-26T08:51:09;3.50;;;1.30;;
38479;SDS011;62333;51.980;5.934;2023-06-26T08:56:24;5.05;;;0.85;;
38479;SDS011;62333;51.980;5.934;2023-06-26T08:58:52;2.75;;;0.90;;
38479;SDS011;62333;51.980;5.934;2023-06-26T09:01:18;3.13;;;0.90;;
38479;SDS011;62333;51.980;5.934;2023-06-26T09:03:45;3.53;;;0.70;;
38479;SDS011;62333;51.980;5.934;2023-06-26T09:06:11;3.17;;;1.13;;
38479;SDS011;62333;51.980;5.934;2023-06-26T09:08:37;4.93;;;1.08;;
38479;SDS011;62333;51.980;5.934;2023-06-26T09:11:02;2.85;;;0.70;;
38479;SDS011;62333;51.980;5.934;2023-06-26T09:13:28;4.00;;;0.70;;
38479;SDS011;62333;51.980;5.934;2023-06-26T09:15:55;2.35;;;0.50;;
38479;SDS011;62333;51.980;5.934;2023-06-26T09:18:21;2.95;;;1.20;;
38479;SDS011;62333;51.980;5.934;2023-06-26T09:20:47;3.70;;;1.73;;
38479;SDS011;62333;51.980;5.934;2023-06-26T09:23:13;1.45;;;0.40;;
38479;SDS011;62333;51.980;5.934;2023-06-26T09:25:39;2.47;;;0.55;;
38479;SDS011;62333;51.980;5.934;2023-06-26T09:28:06;3.55;;;1.10;;
38479;SDS011;62333;51.980;5.934;2023-06-26T09:30:33;1.23;;;0.40;;
38479;SDS011;62333;51.980;5.934;2023-06-26T09:33:12;4.75;;;0.98;;
38479;SDS011;62333;51.980;5.934;2023-06-26T09:35:45;2.60;;;0.40;;
38479;SDS011;62333;51.980;5.934;2023-06-26T09:38:11;3.05;;;0.20;;
38479;SDS011;62333;51.980;5.934;2023-06-26T09:40:38;3.00;;;0.30;;
38479;SDS011;62333;51.980;5.934;2023-06-26T09:43:05;1.77;;;0.60;;
38479;SDS011;62333;51.980;5.934;2023-06-26T09:45:34;3.13;;;0.95;;
38479;SDS011;62333;51.980;5.934;2023-06-26T09:48:03;2.92;;;0.30;;
38479;SDS011;62333;51.980;5.934;2023-06-26T09:50:30;1.33;;;0.45;;
38479;SDS011;62333;51.980;5.934;2023-06-26T09:53:06;2.20;;;0.50;;
38479;SDS011;62333;51.980;5.934;2023-06-26T09:55:36;1.75;;;0.50;;
38479;SDS011;62333;51.980;5.934;2023-06-26T09:58:02;1.60;;;0.50;;
38479;SDS011;62333;51.980;5.934;2023-06-26T10:00:29;5.40;;;1.35;;
38479;SDS011;62333;51.980;5.934;2023-06-26T10:02:56;3.85;;;0.65;;
38479;SDS011;62333;51.980;5.934;2023-06-26T10:05:21;2.80;;;0.70;;
38479;SDS011;62333;51.980;5.934;2023-06-26T10:07:47;3.72;;;0.85;;
38479;SDS011;62333;51.980;5.934;2023-06-26T10:10:14;3.25;;;0.47;;
38479;SDS011;62333;51.980;5.934;2023-06-26T10:12:42;3.45;;;1.27;;
38479;SDS011;62333;51.980;5.934;2023-06-26T10:15:13;3.22;;;0.50;;
38479;SDS011;62333;51.980;5.934;2023-06-26T10:17:42;4.50;;;0.73;;
38479;SDS011;62333;51.980;5.934;2023-06-26T10:20:08;4.88;;;0.82;;
38479;SDS011;62333;51.980;5.934;2023-06-26T10:22:44;1.13;;;0.50;;
38479;SDS011;62333;51.980;5.934;2023-06-26T10:25:12;4.32;;;0.60;;
38479;SDS011;62333;51.980;5.934;2023-06-26T10:27:42;6.28;;;1.38;;
38479;SDS011;62333;51.980;5.934;2023-06-26T10:30:16;2.87;;;0.80;;
38479;SDS011;62333;51.980;5.934;2023-06-26T10:32:46;2.65;;;1.05;;
38479;SDS011;62333;51.980;5.934;2023-06-26T10:35:12;3.03;;;0.95;;
38479;SDS011;62333;51.980;5.934;2023-06-26T10:37:42;2.47;;;0.40;;
38479;SDS011;62333;51.980;5.934;2023-06-26T10:40:11;2.90;;;0.70;;
38479;SDS011;62333;51.980;5.934;2023-06-26T10:42:38;4.18;;;0.80;;
38479;SDS011;62333;51.980;5.934;2023-06-26T10:45:14;3.50;;;0.98;;
38479;SDS011;62333;51.980;5.934;2023-06-26T10:47:42;3.28;;;0.63;;
38479;SDS011;62333;51.980;5.934;2023-06-26T10:50:27;5.13;;;0.63;;
38479;SDS011;62333;51.980;5.934;2023-06-26T10:55:51;2.75;;;1.10;;
38479;SDS011;62333;51.980;5.934;2023-06-26T11:03:39;3.47;;;1.23;;
38479;SDS011;62333;51.980;5.934;2023-06-26T11:06:27;1.95;;;0.40;;
38479;SDS011;62333;51.980;5.934;2023-06-26T11:08:54;2.25;;;0.35;;
38479;SDS011;62333;51.980;5.934;2023-06-26T11:14:20;2.35;;;0.38;;
38479;SDS011;62333;51.980;5.934;2023-06-26T11:16:46;1.10;;;0.40;;
38479;SDS011;62333;51.980;5.934;2023-06-26T11:19:14;2.08;;;0.32;;
38479;SDS011;62333;51.980;5.934;2023-06-26T11:21:41;0.80;;;0.32;;
38479;SDS011;62333;51.980;5.934;2023-06-26T11:24:11;1.50;;;0.30;;
38479;SDS011;62333;51.980;5.934;2023-06-26T11:26:40;2.10;;;0.73;;
38479;SDS011;62333;51.980;5.934;2023-06-26T11:29:07;3.20;;;0.30;;
38479;SDS011;62333;51.980;5.934;2023-06-26T11:31:34;1.70;;;0.30;;
38479;SDS011;62333;51.980;5.934;2023-06-26T11:34:11;1.95;;;0.50;;
38479;SDS011;62333;51.980;5.934;2023-06-26T11:36:41;1.05;;;0.28;;
38479;SDS011;62333;51.980;5.934;2023-06-26T11:39:07;0.88;;;0.22;;
38479;SDS011;62333;51.980;5.934;2023-06-26T11:41:34;3.28;;;1.98;;
38479;SDS011;62333;51.980;5.934;2023-06-26T11:44:02;6.22;;;1.20;;
38479;SDS011;62333;51.980;5.934;2023-06-26T11:46:29;0.98;;;0.30;;
38479;SDS011;62333;51.980;5.934;2023-06-26T11:48:55;2.85;;;0.40;;
38479;SDS011;62333;51.980;5.934;2023-06-26T11:51:21;2.95;;;1.38;;
38479;SDS011;62333;51.980;5.934;2023-06-26T11:53:47;1.77;;;0.30;;
38479;SDS011;62333;51.980;5.934;2023-06-26T11:56:16;2.00;;;0.28;;
38479;SDS011;62333;51.980;5.934;2023-06-26T11:58:55;4.15;;;0.50;;
38479;SDS011;62333;51.980;5.934;2023-06-26T12:01:38;0.80;;;0.30;;
38479;SDS011;62333;51.980;5.934;2023-06-26T12:04:06;3.58;;;0.40;;
38479;SDS011;62333;51.980;5.934;2023-06-26T12:06:35;0.63;;;0.20;;
38479;SDS011;62333;51.980;5.934;2023-06-26T12:09:02;4.28;;;1.08;;
38479;SDS011;62333;51.980;5.934;2023-06-26T12:11:31;1.20;;;0.30;;
38479;SDS011;62333;51.980;5.934;2023-06-26T12:13:58;2.47;;;0.47;;
38479;SDS011;62333;51.980;5.934;2023-06-26T12:16:24;2.15;;;0.40;;
38479;SDS011;62333;51.980;5.934;2023-06-26T12:18:52;1.60;;;0.30;;
38479;SDS011;62333;51.980;5.934;2023-06-26T12:24:01;2.03;;;0.45;;
38479;SDS011;62333;51.980;5.934;2023-06-26T12:26:28;3.60;;;0.40;;
38479;SDS011;62333;51.980;5.934;2023-06-26T12:29:01;2.42;;;0.40;;
38479;SDS011;62333;51.980;5.934;2023-06-26T12:31:34;1.60;;;0.43;;
38479;SDS011;62333;51.980;5.934;2023-06-26T12:34:01;1.90;;;0.60;;
38479;SDS011;62333;51.980;5.934;2023-06-26T12:36:27;1.15;;;0.30;;
38479;SDS011;62333;51.980;5.934;2023-06-26T12:38:53;1.45;;;0.40;;
38479;SDS011;62333;51.980;5.934;2023-06-26T12:41:19;1.08;;;0.20;;
38479;SDS011;62333;51.980;5.934;2023-06-26T12:43:48;0.60;;;0.20;;
38479;SDS011;62333;51.980;5.934;2023-06-26T12:46:15;1.92;;;0.30;;
38479;SDS011;62333;51.980;5.934;2023-06-26T12:48:41;1.88;;;0.20;;
38479;SDS011;62333;51.980;5.934;2023-06-26T12:51:12;1.95;;;0.50;;
38479;SDS011;62333;51.980;5.934;2023-06-26T12:53:40;0.70;;;0.20;;
38479;SDS011;62333;51.980;5.934;2023-06-26T12:56:06;1.00;;;0.28;;
38479;SDS011;62333;51.980;5.934;2023-06-26T12:58:33;5.93;;;0.45;;
38479;SDS011;62333;51.980;5.934;2023-06-26T13:01:00;1.65;;;0.30;;
38479;SDS011;62333;51.980;5.934;2023-06-26T13:03:28;1.00;;;0.30;;
38479;SDS011;62333;51.980;5.934;2023-06-26T13:05:53;3.17;;;0.40;;
38479;SDS011;62333;51.980;5.934;2023-06-26T13:08:19;1.73;;;0.30;;
38479;SDS011;62333;51.980;5.934;2023-06-26T13:10:45;1.92;;;0.30;;
38479;SDS011;62333;51.980;5.934;2023-06-26T13:13:10;1.13;;;0.30;;
38479;SDS011;62333;51.980;5.934;2023-06-26T13:15:36;2.45;;;0.65;;
38479;SDS011;62333;51.980;5.934;2023-06-26T13:18:02;0.82;;;0.30;;
38479;SDS011;62333;51.980;5.934;2023-06-26T13:20:28;1.80;;;0.57;;
38479;SDS011;62333;51.980;5.934;2023-06-26T13:22:54;1.52;;;0.30;;
38479;SDS011;62333;51.980;5.934;2023-06-26T13:25:23;1.60;;;0.32;;
38479;SDS011;62333;51.980;5.934;2023-06-26T13:27:48;1.35;;;0.30;;
38479;SDS011;62333;51.980;5.934;2023-06-26T13:30:14;0.65;;;0.20;;
38479;SDS011;62333;51.980;5.934;2023-06-26T13:32:40;1.02;;;0.30;;
38479;SDS011;62333;51.980;5.934;2023-06-26T13:35:06;2.08;;;0.50;;
38479;SDS011;62333;51.980;5.934;2023-06-26T13:37:32;1.20;;;0.45;;
38479;SDS011;62333;51.980;5.934;2023-06-26T13:40:01;1.67;;;0.40;;
38479;SDS011;62333;51.980;5.934;2023-06-26T13:42:28;1.80;;;0.40;;
38479;SDS011;62333;51.980;5.934;2023-06-26T13:44:54;3.08;;;1.02;;
38479;SDS011;62333;51.980;5.934;2023-06-26T13:47:20;2.08;;;0.55;;
38479;SDS011;62333;51.980;5.934;2023-06-26T13:49:46;1.75;;;0.52;;
38479;SDS011;62333;51.980;5.934;2023-06-26T13:52:12;2.88;;;0.30;;
38479;SDS011;62333;51.980;5.934;2023-06-26T13:54:37;3.25;;;1.33;;
38479;SDS011;62333;51.980;5.934;2023-06-26T13:57:05;1.38;;;0.30;;
38479;SDS011;62333;51.980;5.934;2023-06-26T13:59:31;2.28;;;0.20;;
38479;SDS011;62333;51.980;5.934;2023-06-26T14:01:57;1.85;;;0.52;;
38479;SDS011;62333;51.980;5.934;2023-06-26T14:04:24;1.58;;;0.35;;
38479;SDS011;62333;51.980;5.934;2023-06-26T14:06:50;1.40;;;0.22;;
38479;SDS011;62333;51.980;5.934;2023-06-26T14:09:15;2.20;;;0.40;;
38479;SDS011;62333;51.980;5.934;2023-06-26T14:11:41;2.20;;;0.47;;
38479;SDS011;62333;51.980;5.934;2023-06-26T14:14:07;1.38;;;0.63;;
38479;SDS011;62333;51.980;5.934;2023-06-26T14:16:32;0.68;;;0.20;;
38479;SDS011;62333;51.980;5.934;2023-06-26T14:18:58;2.58;;;0.95;;
38479;SDS011;62333;51.980;5.934;2023-06-26T14:21:24;1.58;;;0.47;;
38479;SDS011;62333;51.980;5.934;2023-06-26T14:23:50;2.75;;;0.40;;
38479;SDS011;62333;51.980;5.934;2023-06-26T14:26:15;1.90;;;0.40;;
38479;SDS011;62333;51.980;5.934;2023-06-26T14:28:41;3.33;;;1.08;;
38479;SDS011;62333;51.980;5.934;2023-06-26T14:31:07;2.35;;;0.70;;
38479;SDS011;62333;51.980;5.934;2023-06-26T14:33:32;3.55;;;0.38;;
38479;SDS011;62333;51.980;5.934;2023-06-26T14:35:58;1.67;;;0.65;;
38479;SDS011;62333;51.980;5.934;2023-06-26T14:38:24;2.42;;;0.80;;
38479;SDS011;62333;51.980;5.934;2023-06-26T14:40:49;2.90;;;0.45;;
38479;SDS011;62333;51.980;5.934;2023-06-26T14:43:15;2.40;;;1.08;;
38479;SDS011;62333;51.980;5.934;2023-06-26T14:45:41;1.08;;;0.30;;
38479;SDS011;62333;51.980;5.934;2023-06-26T14:48:07;2.90;;;1.23;;
38479;SDS011;62333;51.980;5.934;2023-06-26T14:50:32;1.63;;;0.35;;
38479;SDS011;62333;51.980;5.934;2023-06-26T14:52:58;1.38;;;0.30;;
38479;SDS011;62333;51.980;5.934;2023-06-26T14:55:24;1.83;;;0.40;;
38479;SDS011;62333;51.980;5.934;2023-06-26T14:57:50;1.92;;;0.40;;
38479;SDS011;62333;51.980;5.934;2023-06-26T15:00:16;2.88;;;0.30;;
38479;SDS011;62333;51.980;5.934;2023-06-26T15:02:42;4.40;;;0.55;;
38479;SDS011;62333;51.980;5.934;2023-06-26T15:05:08;1.35;;;0.30;;
38479;SDS011;62333;51.980;5.934;2023-06-26T15:07:34;1.33;;;0.45;;
38479;SDS011;62333;51.980;5.934;2023-06-26T15:09:59;2.00;;;0.63;;